Time;durP1;ratioP1;P1;durP2;ratioP2;P2;SDS_P1;SDS_P2;PMS_P1;PMS_P2;Temp;Humidity;BMP_temperature;BMP_pressure;BME280_temperature;BME280_humidity;BME280_pressure;Samples;Min_cycle;Max_cycle;Signal;HPM_P1;HPM_P2
2023/12/27 00:01:15;;;;;;;182.87;6.87;;;;;;;22.24;58.28;99770.22;7295115;19;129300;-40
2023/12/27 00:03:41;;;;;;;180.13;7.40;;;;;;;22.24;58.39;99766.75;7293711;19;129344;-37
2023/12/27 00:06:06;;;;;;;221.75;8.77;;;;;;;22.22;57.69;99766.06;7294721;19;129838;-35
2023/12/27 00:08:31;;;;;;;265.90;10.27;;;;;;;22.07;58.15;99757.81;7291941;19;129679;-37
2023/12/27 00:10:57;;;;;;;228.37;9.10;;;;;;;22.19;58.01;99782.06;7292437;19;132106;-39
2023/12/27 00:13:22;;;;;;;201.07;7.93;;;;;;;22.20;57.98;99791.56;7287877;19;131240;-37
2023/12/27 00:15:47;;;;;;;176.38;7.40;;;;;;;22.21;58.54;99795.84;7295280;19;129565;-42
2023/12/27 00:18:16;;;;;;;215.18;8.27;;;;;;;22.23;58.39;99799.16;7294415;19;129602;-41
2023/12/27 00:20:41;;;;;;;136.93;5.45;;;;;;;22.23;58.01;99791.31;7296075;19;131789;-39
2023/12/27 00:23:07;;;;;;;196.50;7.70;;;;;;;22.22;57.82;99802.72;7292391;19;130036;-42
2023/12/27 00:25:32;;;;;;;163.77;6.50;;;;;;;22.19;57.75;99798.59;7290229;19;130985;-37
2023/12/27 00:27:57;;;;;;;262.00;10.17;;;;;;;22.21;58.35;99806.31;7294484;19;130410;-40
2023/12/27 00:30:23;;;;;;;239.33;9.40;;;;;;;22.21;58.42;99822.03;7292785;19;130399;-39
2023/12/27 00:32:48;;;;;;;195.18;7.72;;;;;;;22.21;58.07;99822.88;7294600;19;132039;-38
2023/12/27 00:35:13;;;;;;;209.10;7.93;;;;;;;22.22;57.70;99823.69;7295182;19;130132;-42
2023/12/27 00:37:39;;;;;;;284.77;10.70;;;;;;;22.22;57.68;99821.06;7290923;19;132548;-41
2023/12/27 00:40:05;;;;;;;165.53;6.50;;;;;;;22.24;57.96;99819.13;7294334;19;129686;-38
2023/12/27 00:42:31;;;;;;;155.18;6.25;;;;;;;22.22;57.62;99823.69;7290976;19;130316;-40
2023/12/27 00:44:56;;;;;;;228.57;8.80;;;;;;;22.18;58.29;99824.94;7293270;19;131150;-38
2023/12/27 00:47:21;;;;;;;235.23;9.23;;;;;;;22.21;57.73;99828.13;7291117;19;131859;-39
2023/12/27 00:49:47;;;;;;;284.23;11.33;;;;;;;22.21;58.15;99822.88;7290709;19;130330;-38
2023/12/27 00:52:12;;;;;;;221.43;8.82;;;;;;;22.07;57.52;99804.94;7293369;19;129293;-39
2023/12/27 00:54:38;;;;;;;272.70;10.00;;;;;;;22.23;57.94;99835.81;7294089;19;129191;-37
2023/12/27 00:57:04;;;;;;;240.33;9.27;;;;;;;22.21;58.02;99833.34;7294884;19;130161;-37
2023/12/27 00:59:29;;;;;;;166.35;6.60;;;;;;;22.20;58.10;99842.16;7292366;19;131385;-37
2023/12/27 01:01:54;;;;;;;240.70;9.38;;;;;;;22.23;57.43;99846.31;7293066;19;131035;-38
2023/12/27 01:04:20;;;;;;;257.23;9.63;;;;;;;22.24;58.28;99847.94;7293436;19;129639;-37
2023/12/27 01:06:45;;;;;;;259.40;10.55;;;;;;;22.23;57.64;99854.16;7294771;19;132192;-38
2023/12/27 01:09:10;;;;;;;232.07;9.23;;;;;;;22.23;57.27;99862.81;7292495;19;131157;-38
2023/12/27 01:11:36;;;;;;;180.63;7.13;;;;;;;22.23;57.36;99870.69;7290758;19;129540;-37
2023/12/27 01:14:02;;;;;;;190.23;7.32;;;;;;;22.23;57.38;99872.50;7291684;19;129761;-36
2023/12/27 01:16:27;;;;;;;233.77;8.70;;;;;;;22.23;57.45;99872.50;7295498;19;131243;-37
2023/12/27 01:18:53;;;;;;;239.20;9.65;;;;;;;22.21;57.36;99877.88;7292455;19;132391;-37
2023/12/27 01:21:18;;;;;;;249.70;9.83;;;;;;;22.19;57.63;99884.19;7291383;19;131056;-37
2023/12/27 01:23:44;;;;;;;306.43;11.67;;;;;;;22.20;57.81;99883.22;7291680;19;129749;-38
2023/12/27 01:26:10;;;;;;;165.00;6.40;;;;;;;22.20;57.64;99891.06;7292091;19;130223;-38
2023/12/27 01:28:35;;;;;;;222.17;8.43;;;;;;;22.09;57.40;99875.50;7293192;19;130320;-37
2023/12/27 01:31:01;;;;;;;257.50;9.85;;;;;;;22.18;57.39;99885.97;7289389;19;130254;-37
2023/12/27 01:33:27;;;;;;;240.20;9.20;;;;;;;22.19;57.58;99894.66;7289157;19;129244;-38
2023/12/27 01:35:52;;;;;;;272.00;10.87;;;;;;;22.18;57.58;99901.69;7292905;19;129607;-37
2023/12/27 01:38:17;;;;;;;187.37;7.13;;;;;;;22.17;57.49;99904.44;7292602;19;130911;-43
2023/12/27 01:40:49;;;;;;;185.40;7.10;;;;;;;22.03;58.37;99882.13;7291229;19;129127;-37
2023/12/27 01:43:15;;;;;;;261.85;9.77;;;;;;;22.15;58.09;99906.41;7290666;19;129763;-39
2023/12/27 01:45:40;;;;;;;143.40;5.53;;;;;;;22.03;57.67;99881.28;7290623;19;130000;-39
2023/12/27 01:48:06;;;;;;;217.63;8.47;;;;;;;22.14;57.76;99904.72;7291288;19;131036;-39
2023/12/27 01:50:32;;;;;;;245.38;9.88;;;;;;;22.14;57.81;99899.47;7292016;19;129619;-38
2023/12/27 01:52:57;;;;;;;238.60;9.40;;;;;;;22.13;58.23;99910.94;7291979;19;130906;-37
2023/12/27 01:55:22;;;;;;;251.65;9.82;;;;;;;22.14;57.78;99917.81;7291533;19;131013;-37
2023/12/27 01:57:48;;;;;;;216.83;8.27;;;;;;;22.13;57.67;99918.78;7292896;19;131117;-37
2023/12/27 02:00:15;;;;;;;238.07;8.93;;;;;;;22.12;57.61;99930.22;7291918;19;130998;-42
2023/12/27 02:02:41;;;;;;;189.52;7.15;;;;;;;22.10;57.46;99914.63;7291479;19;129823;-38
2023/12/27 02:05:06;;;;;;;257.40;9.77;;;;;;;22.10;58.24;99919.06;7290965;19;131072;-38
2023/12/27 02:07:32;;;;;;;218.87;8.30;;;;;;;22.08;57.77;99910.50;7289779;19;130291;-37
2023/12/27 02:09:58;;;;;;;271.90;10.68;;;;;;;22.09;57.76;99928.69;7288268;19;130417;-37
2023/12/27 02:12:28;;;;;;;246.68;9.25;;;;;;;21.96;58.58;99901.94;7292775;19;133491;-37
2023/12/27 02:14:54;;;;;;;162.55;6.47;;;;;;;22.08;58.25;99929.66;7289576;19;131189;-38
2023/12/27 02:17:21;;;;;;;259.70;9.90;;;;;;;22.05;57.70;99926.50;7291230;19;131365;-39
2023/12/27 02:19:46;;;;;;;263.58;9.55;;;;;;;22.07;57.69;99929.78;7288523;19;130577;-37
2023/12/27 02:22:16;;;;;;;224.37;8.83;;;;;;;21.95;58.34;99908.97;7292849;19;131330;-37
2023/12/27 02:24:42;;;;;;;160.95;6.13;;;;;;;22.07;57.78;99929.78;7292016;19;131129;-38
2023/12/27 02:27:07;;;;;;;214.37;8.23;;;;;;;22.04;57.73;99936.13;7291780;19;130212;-40
2023/12/27 02:29:34;;;;;;;269.42;10.00;;;;;;;22.04;58.02;99930.91;7288506;19;129733;-40
2023/12/27 02:32:00;;;;;;;228.60;8.80;;;;;;;22.04;57.94;99940.53;7290706;19;130462;-36
2023/12/27 02:34:25;;;;;;;180.77;6.77;;;;;;;22.03;57.60;99938.88;7291389;19;130539;-40
2023/12/27 02:36:51;;;;;;;223.70;8.67;;;;;;;21.92;57.74;99926.72;7291553;19;130953;-38
2023/12/27 02:39:17;;;;;;;226.63;8.32;;;;;;;22.01;58.23;99941.63;7293067;19;130466;-40
2023/12/27 02:41:42;;;;;;;246.17;9.47;;;;;;;22.00;58.28;99941.78;7289439;19;130380;-42
2023/12/27 02:44:07;;;;;;;180.65;7.20;;;;;;;22.01;58.07;99946.03;7291549;19;130919;-37
2023/12/27 02:46:33;;;;;;;174.55;6.63;;;;;;;22.00;57.66;99957.50;7291224;19;129696;-38
2023/12/27 02:48:59;;;;;;;298.77;11.17;;;;;;;21.98;57.77;99953.19;7293246;19;130019;-37
2023/12/27 02:51:24;;;;;;;160.05;5.93;;;;;;;22.00;57.88;99954.88;7289403;19;131249;-37
2023/12/27 02:53:49;;;;;;;211.43;8.00;;;;;;;21.96;58.12;99957.72;7293854;19;131124;-40
2023/12/27 02:56:15;;;;;;;230.57;8.48;;;;;;;21.98;57.70;99959.41;7297289;19;129667;-39
2023/12/27 02:58:40;;;;;;;275.27;10.20;;;;;;;21.98;57.57;99962.84;7295096;19;130569;-37
2023/12/27 03:01:06;;;;;;;189.37;6.93;;;;;;;21.97;58.30;99950.72;7298463;19;130333;-38
2023/12/27 03:03:32;;;;;;;196.30;7.45;;;;;;;21.84;57.65;99935.25;7290658;19;131939;-40
2023/12/27 03:05:57;;;;;;;189.63;7.23;;;;;;;21.96;58.38;99957.72;7293085;19;129930;-40
2023/12/27 03:08:22;;;;;;;268.05;10.07;;;;;;;21.95;58.52;99966.56;7295106;19;129549;-38
2023/12/27 03:10:48;;;;;;;246.03;9.40;;;;;;;21.90;58.56;99955.66;7297439;19;129436;-38
2023/12/27 03:13:13;;;;;;;155.07;5.82;;;;;;;21.77;58.20;99939.34;7294831;19;132173;-42
2023/12/27 03:15:39;;;;;;;240.17;8.83;;;;;;;21.87;58.50;99955.91;7297153;19;132528;-39
2023/12/27 03:18:04;;;;;;;243.02;9.60;;;;;;;21.83;58.63;99958.94;7297284;19;129161;-39
2023/12/27 03:20:29;;;;;;;211.27;8.03;;;;;;;21.78;58.38;99961.94;7296488;19;129857;-39
2023/12/27 03:22:55;;;;;;;259.20;9.88;;;;;;;21.74;58.96;99951.84;7295677;19;131389;-37
2023/12/27 03:25:20;;;;;;;280.77;10.73;;;;;;;21.70;59.00;99961.72;7295924;19;131795;-40
2023/12/27 03:27:45;;;;;;;201.38;7.65;;;;;;;21.68;58.80;99955.78;7298928;19;130474;-37
2023/12/27 03:30:11;;;;;;;196.80;7.55;;;;;;;21.47;59.07;99926.25;7294959;19;131611;-39
2023/12/27 03:32:37;;;;;;;254.40;9.43;;;;;;;21.62;59.38;99947.66;7295710;19;130843;-39
2023/12/27 03:35:02;;;;;;;276.45;10.45;;;;;;;21.60;58.84;99954.81;7295969;19;131501;-38
2023/12/27 03:37:28;;;;;;;203.30;7.85;;;;;;;21.45;59.24;99938.63;7293188;19;129374;-38
2023/12/27 03:39:53;;;;;;;239.73;10.17;;;;;;;21.57;58.67;99968.97;7295350;19;129890;-38
2023/12/27 03:42:21;;;;;;;258.25;9.38;;;;;;;21.54;58.77;99977.09;7294867;19;131302;-37
2023/12/27 03:44:52;;;;;;;249.75;9.38;;;;;;;21.51;59.22;99974.75;7296706;19;131817;-37
2023/12/27 03:47:22;;;;;;;159.65;5.93;;;;;;;21.48;59.22;99971.56;7297452;19;129505;-37
2023/12/27 03:49:47;;;;;;;219.95;8.50;;;;;;;21.49;59.06;99981.88;7293935;19;129588;-38
2023/12/27 03:52:13;;;;;;;163.43;6.15;;;;;;;21.49;59.37;99987.13;7294989;19;130883;-38
2023/12/27 03:54:38;;;;;;;332.87;12.53;;;;;;;21.50;59.22;99985.34;7294860;19;131152;-37
2023/12/27 03:57:04;;;;;;;218.98;8.73;;;;;;;21.47;59.20;99983.78;7296394;19;129828;-37
2023/12/27 03:59:29;;;;;;;214.23;7.87;;;;;;;21.45;59.39;99990.94;7293065;19;129427;-37
2023/12/27 04:01:54;;;;;;;126.23;4.70;;;;;;;21.31;59.29;99967.75;7293612;19;130322;-37
2023/12/27 04:04:20;;;;;;;304.02;11.38;;;;;;;21.42;59.46;99988.59;7294747;19;130443;-38
2023/12/27 04:06:45;;;;;;;197.13;7.03;;;;;;;21.42;59.14;99985.16;7297181;19;130861;-36
2023/12/27 04:09:12;;;;;;;212.05;7.97;;;;;;;21.42;59.08;99985.16;7290671;19;129652;-43
2023/12/27 04:11:44;;;;;;;246.35;9.00;;;;;;;21.45;59.32;99980.47;7292779;19;132297;-38
2023/12/27 04:14:10;;;;;;;249.18;9.32;;;;;;;21.44;59.60;99978.81;7296803;19;132055;-38
2023/12/27 04:16:36;;;;;;;196.00;7.07;;;;;;;21.43;59.12;99982.41;7293759;19;129567;-38
2023/12/27 04:19:01;;;;;;;210.10;8.18;;;;;;;21.41;59.07;99981.72;7293258;19;130033;-38
2023/12/27 04:21:27;;;;;;;193.80;7.07;;;;;;;21.40;59.25;99982.66;7294910;19;130452;-36
2023/12/27 04:23:52;;;;;;;289.73;10.87;;;;;;;21.42;59.60;99985.97;7291852;19;131084;-37
2023/12/27 04:26:18;;;;;;;233.30;8.52;;;;;;;21.43;59.50;99986.81;7292553;19;129137;-38
2023/12/27 04:28:43;;;;;;;195.65;7.57;;;;;;;21.31;59.60;99966.91;7294433;19;129790;-37
2023/12/27 04:31:09;;;;;;;264.67;10.27;;;;;;;21.39;59.61;99990.63;7293292;19;130549;-38
2023/12/27 04:33:34;;;;;;;238.25;9.07;;;;;;;21.39;59.20;99981.00;7292407;19;130982;-39
2023/12/27 04:35:59;;;;;;;218.93;8.35;;;;;;;21.39;59.73;99990.63;7294182;19;130639;-40
2023/12/27 04:38:25;;;;;;;216.85;8.45;;;;;;;21.43;59.13;99987.66;7294224;19;130061;-42
2023/12/27 04:40:51;;;;;;;177.13;6.40;;;;;;;21.80;58.35;99987.97;7294950;19;132034;-37
2023/12/27 04:43:16;;;;;;;203.57;7.53;;;;;;;22.08;57.86;99989.06;7294565;19;131630;-38
2023/12/27 04:45:41;;;;;;;170.68;6.45;;;;;;;22.46;56.28;99962.97;7284280;19;129878;-37
2023/12/27 04:48:07;;;;;;;177.50;7.10;;;;;;;23.24;54.38;99982.00;7293628;19;129603;-37
2023/12/27 04:50:33;;;;;;;277.00;10.48;;;;;;;23.99;51.87;99990.66;7294326;19;131342;-39
2023/12/27 04:52:58;;;;;;;212.93;7.87;;;;;;;24.59;50.03;99980.50;7293119;19;131467;-35
2023/12/27 04:55:23;;;;;;;145.93;5.47;;;;;;;25.09;49.76;99977.19;7294313;19;129750;-36
2023/12/27 04:57:49;;;;;;;258.30;9.37;;;;;;;25.59;47.63;99980.00;7293350;19;129497;-36
2023/12/27 05:00:14;;;;;;;346.65;13.50;;;;;;;25.87;47.47;99978.00;7290259;19;130852;-38
2023/12/27 05:02:39;;;;;;;364.50;14.30;;;;;;;26.10;46.26;99979.94;7286920;19;130604;-36
2023/12/27 05:05:05;;;;;;;218.27;8.53;;;;;;;26.24;46.29;99976.72;7289636;19;130862;-37
2023/12/27 05:07:30;;;;;;;219.93;7.87;;;;;;;26.28;45.96;99991.22;7291195;19;130423;-36
2023/12/27 05:09:55;;;;;;;282.83;11.67;;;;;;;26.21;46.10;99984.13;7290052;19;131830;-38
2023/12/27 05:12:21;;;;;;;216.93;8.47;;;;;;;26.20;46.42;99991.19;7289797;19;130862;-40
2023/12/27 05:14:46;;;;;;;243.63;9.07;;;;;;;26.03;47.00;100005.28;7293851;19;132555;-36
2023/12/27 05:17:12;;;;;;;284.77;11.23;;;;;;;25.94;47.09;99990.41;7291704;19;129491;-37
2023/12/27 05:19:38;;;;;;;205.93;7.63;;;;;;;25.83;46.80;99977.53;7292386;19;131234;-37
2023/12/27 05:22:04;;;;;;;;;;;;;;;25.80;47.06;100004.16;7291475;19;131362;-35
2023/12/27 05:24:29;;;;;;;199.85;7.47;;;;;;;25.64;47.74;100006.69;7292859;19;129580;-34
2023/12/27 05:26:55;;;;;;;242.67;9.13;;;;;;;25.68;47.46;100000.16;7291474;19;129503;-34
2023/12/27 05:29:20;;;;;;;150.77;5.70;;;;;;;25.68;47.45;100010.69;7293307;19;130268;-40
2023/12/27 05:31:45;;;;;;;211.47;7.90;;;;;;;25.61;47.81;100010.50;7292804;19;131713;-36
2023/12/27 05:34:11;;;;;;;251.30;9.83;;;;;;;25.66;47.61;100010.84;7292493;19;131600;-36
2023/12/27 05:36:36;;;;;;;243.27;9.17;;;;;;;25.36;47.70;99999.94;7293937;19;131044;-35
2023/12/27 05:39:03;;;;;;;213.57;8.30;;;;;;;25.38;48.04;100014.63;7292535;19;130541;-37
2023/12/27 05:41:29;;;;;;;169.95;6.38;;;;;;;25.22;48.27;100013.63;7292187;19;130653;-37
2023/12/27 05:43:54;;;;;;;289.67;11.00;;;;;;;24.91;49.22;99994.78;7285951;19;129074;-38
2023/12/27 05:46:20;;;;;;;240.03;8.63;;;;;;;24.85;49.22;100021.69;7288303;19;130165;-39
2023/12/27 05:48:45;;;;;;;400.17;15.70;;;;;;;24.75;49.90;100025.38;7285938;19;131318;-39
2023/12/27 05:51:10;;;;;;;257.37;10.17;;;;;;;24.54;50.79;100027.44;7288164;19;130298;-38
2023/12/27 05:53:36;;;;;;;211.77;7.73;;;;;;;24.42;50.99;100030.28;7287131;19;130211;-38
2023/12/27 05:56:01;;;;;;;167.93;6.37;;;;;;;24.27;51.48;100036.16;7293220;19;129693;-39
2023/12/27 05:58:26;;;;;;;206.30;8.03;;;;;;;24.09;51.82;100044.00;7289687;19;129492;-40
2023/12/27 06:00:52;;;;;;;222.50;8.10;;;;;;;23.98;51.92;100032.84;7291638;19;130592;-40
2023/12/27 06:03:17;;;;;;;259.73;9.77;;;;;;;23.83;52.15;100037.69;7292519;19;132725;-37
2023/12/27 06:05:42;;;;;;;195.77;7.30;;;;;;;23.70;52.75;100031.91;7289626;19;131932;-38
2023/12/27 06:08:08;;;;;;;331.03;13.33;;;;;;;23.61;52.91;100038.03;7286762;19;130748;-43
2023/12/27 06:10:33;;;;;;;265.43;9.70;;;;;;;23.45;53.68;100036.97;7280711;19;132370;-41
2023/12/27 06:12:58;;;;;;;288.90;11.00;;;;;;;23.36;54.11;100038.63;7282485;19;131019;-39
2023/12/27 06:15:23;;;;;;;278.35;10.73;;;;;;;23.25;54.42;100041.38;7282145;19;131017;-38
2023/12/27 06:17:49;;;;;;;238.23;8.73;;;;;;;23.14;54.38;100036.25;7289210;19;130069;-38
2023/12/27 06:20:14;;;;;;;307.53;11.60;;;;;;;23.06;54.87;100052.69;7290031;19;130842;-39
2023/12/27 06:22:40;;;;;;;231.77;9.33;;;;;;;22.96;54.89;100059.72;7281218;19;130062;-38
2023/12/27 06:25:05;;;;;;;199.83;7.80;;;;;;;22.91;55.15;100068.97;7288381;19;129913;-39
2023/12/27 06:27:31;;;;;;;162.18;6.22;;;;;;;22.85;55.22;100069.53;7289807;19;130491;-38
2023/12/27 06:29:57;;;;;;;356.00;13.97;;;;;;;22.74;55.74;100067.03;7290411;19;130367;-38
2023/12/27 06:32:22;;;;;;;201.48;7.57;;;;;;;22.70;55.75;100070.88;7289714;19;129727;-37
2023/12/27 06:34:47;;;;;;;151.50;5.80;;;;;;;22.62;55.48;100074.19;7291141;19;131069;-38
2023/12/27 06:37:14;;;;;;;275.40;10.90;;;;;;;22.57;55.60;100071.13;7290613;19;131367;-38
2023/12/27 06:39:39;;;;;;;243.88;9.07;;;;;;;22.57;55.72;100071.13;7289395;19;130782;-37
2023/12/27 06:42:04;;;;;;;216.77;8.57;;;;;;;22.58;55.87;100071.94;7288166;19;129580;-43
2023/12/27 06:44:30;;;;;;;111.45;4.13;;;;;;;;;;7286893;19;129548;-43
2023/12/27 06:46:55;;;;;;;239.35;8.77;;;;;;;22.65;55.92;100073.91;7286389;19;129801;-37
2023/12/27 06:49:20;;;;;;;284.50;10.63;;;;;;;22.75;56.00;100072.13;7287697;19;130346;-37
2023/12/27 06:51:46;;;;;;;370.97;14.10;;;;;;;22.85;55.17;100074.75;7285689;19;130007;-40
2023/12/27 06:54:11;;;;;;;301.40;12.07;;;;;;;23.01;54.46;100070.63;7286285;19;129946;-38
2023/12/27 06:56:39;;;;;;;230.07;8.63;;;;;;;23.09;54.62;100072.56;7288717;19;133023;-38
2023/12/27 06:59:05;;;;;;;512.10;20.92;;;;;;;23.32;53.52;100068.72;7281458;19;130420;-38
2023/12/27 07:01:30;;;;;;;141.27;5.17;;;;;;;23.48;53.35;100066.38;7285472;19;129933;-41
2023/12/27 07:03:55;;;;;;;150.43;5.53;;;;;;;23.60;52.59;100051.31;7286973;19;129041;-40
2023/12/27 07:06:21;;;;;;;320.43;12.10;;;;;;;23.83;52.13;100068.38;7281467;19;130851;-38
2023/12/27 07:08:46;;;;;;;211.23;8.10;;;;;;;23.90;51.66;100062.41;7287282;19;132670;-37
2023/12/27 07:11:19;;;;;;;284.17;10.80;;;;;;;23.90;51.59;100046.63;7283957;19;129546;-37
2023/12/27 07:13:46;;;;;;;420.70;17.00;;;;;;;24.24;50.85;100073.25;7282196;19;130098;-37
2023/12/27 07:16:13;;;;;;;304.40;11.27;;;;;;;24.36;51.22;100080.78;7284218;19;130263;-37
2023/12/27 07:18:38;;;;;;;208.98;7.75;;;;;;;24.44;50.73;100077.44;7290162;19;131256;-37
2023/12/27 07:21:05;;;;;;;247.43;9.70;;;;;;;24.56;50.08;100072.81;7280169;19;129638;-37
2023/12/27 07:23:30;;;;;;;;;;;;;;;24.62;49.92;100073.03;7287347;19;130453;-37
2023/12/27 07:25:56;;;;;;;325.53;12.37;;;;;;;24.64;50.53;100075.53;7288903;19;131126;-36
2023/12/27 07:28:21;;;;;;;190.98;7.47;;;;;;;24.75;50.04;100081.44;7289122;19;130033;-37
2023/12/27 07:30:46;;;;;;;192.50;7.23;;;;;;;24.79;49.87;100090.66;7287641;19;129288;-37
2023/12/27 07:33:15;;;;;;;155.17;5.77;;;;;;;24.91;49.51;100094.75;7284141;19;130230;-37
2023/12/27 07:35:42;;;;;;;312.38;11.57;;;;;;;25.01;48.99;100095.50;7289000;19;130550;-37
2023/12/27 07:38:08;;;;;;;190.13;7.22;;;;;;;25.08;49.06;100095.72;7298866;19;131661;-38
2023/12/27 07:40:34;;;;;;;186.97;7.13;;;;;;;25.10;49.32;100089.34;7290259;19;129112;-37
2023/12/27 07:43:00;;;;;;;231.80;8.85;;;;;;;25.24;48.78;100091.44;7292997;19;132160;-40
2023/12/27 07:45:25;;;;;;;333.27;12.90;;;;;;;25.24;48.63;100085.34;7292302;19;129301;-40
2023/12/27 07:47:50;;;;;;;173.17;6.80;;;;;;;25.15;48.88;100091.53;7296119;19;131713;-39
2023/12/27 07:50:16;;;;;;;202.67;7.93;;;;;;;25.29;48.76;100091.81;7292506;19;129316;-42
2023/12/27 07:52:42;;;;;;;162.20;5.83;;;;;;;25.30;48.76;100092.66;7294178;19;130872;-40
2023/12/27 07:55:08;;;;;;;202.95;7.65;;;;;;;25.27;48.36;100095.59;7296267;19;130932;-38
2023/12/27 07:57:33;;;;;;;246.60;9.43;;;;;;;25.27;48.43;100091.13;7294538;19;130147;-39
2023/12/27 07:59:59;;;;;;;236.70;9.77;;;;;;;25.29;48.14;100097.09;7293349;19;129350;-42
2023/12/27 08:02:24;;;;;;;259.52;9.85;;;;;;;25.20;48.97;100092.75;7294589;19;129181;-35
2023/12/27 08:04:49;;;;;;;214.17;7.97;;;;;;;25.23;48.91;100099.50;7296421;19;130837;-37
2023/12/27 08:07:15;;;;;;;216.90;8.70;;;;;;;25.09;48.97;100095.56;7292968;19;129599;-38
2023/12/27 08:09:40;;;;;;;201.07;7.83;;;;;;;25.04;48.63;100089.13;7292950;19;129222;-37
2023/12/27 08:12:06;;;;;;;142.77;5.27;;;;;;;24.97;48.94;100095.97;7294588;19;129919;-37
2023/12/27 08:14:32;;;;;;;192.40;7.50;;;;;;;24.92;49.02;100106.09;7294686;19;130791;-38
2023/12/27 08:16:57;;;;;;;90.47;3.90;;;;;;;24.82;50.04;100105.34;7295458;19;131389;-37
2023/12/27 08:19:23;;;;;;;248.40;9.77;;;;;;;24.72;49.92;100115.09;7294706;19;130845;-37
2023/12/27 08:21:48;;;;;;;227.73;8.53;;;;;;;24.70;50.23;100119.66;7293884;19;129630;-37
2023/12/27 08:24:13;;;;;;;188.43;7.10;;;;;;;24.57;49.80;100117.34;7295404;19;130023;-37
2023/12/27 08:26:39;;;;;;;136.90;5.20;;;;;;;24.52;50.22;100124.00;7293001;19;130080;-37
2023/12/27 08:29:04;;;;;;;266.13;10.43;;;;;;;24.43;50.27;100128.31;7293986;19;129208;-37
2023/12/27 08:31:30;;;;;;;312.23;12.20;;;;;;;24.30;50.69;100125.19;7294099;19;129094;-37
2023/12/27 08:33:58;;;;;;;241.70;9.07;;;;;;;24.22;51.06;100133.81;7289676;19;130035;-37
2023/12/27 08:36:24;;;;;;;216.32;8.68;;;;;;;24.11;51.93;100130.53;7294541;19;130441;-37
2023/12/27 08:38:50;;;;;;;242.87;8.93;;;;;;;24.00;51.96;100134.16;7294389;19;129517;-37
2023/12/27 08:41:15;;;;;;;194.67;7.20;;;;;;;23.89;52.50;100136.91;7290287;19;129864;-37
2023/12/27 08:43:42;;;;;;;218.00;8.07;;;;;;;23.80;52.27;100143.00;7290494;19;130240;-38
2023/12/27 08:46:11;;;;;;;237.40;9.07;;;;;;;23.62;52.87;100128.94;7291506;19;131003;-38
2023/12/27 08:48:36;;;;;;;220.20;8.25;;;;;;;23.67;52.57;100139.84;7293268;19;129186;-38
2023/12/27 08:51:02;;;;;;;236.03;9.30;;;;;;;23.57;52.58;100144.25;7294664;19;130835;-38
2023/12/27 08:53:29;;;;;;;215.90;8.93;;;;;;;23.51;53.23;100152.69;7293056;19;131719;-38
2023/12/27 08:55:54;;;;;;;199.13;7.72;;;;;;;23.47;53.34;100153.13;7290490;19;130528;-38
2023/12/27 08:58:20;;;;;;;289.97;10.90;;;;;;;23.42;53.27;100157.97;7291318;19;129620;-38
2023/12/27 09:00:45;;;;;;;232.50;9.07;;;;;;;23.23;53.18;100133.34;7292755;19;131732;-37
2023/12/27 09:03:11;;;;;;;286.97;10.83;;;;;;;23.32;53.30;100152.69;7286927;19;129913;-36
2023/12/27 09:05:36;;;;;;;153.57;5.60;;;;;;;23.31;53.95;100153.66;7284471;19;130436;-38
2023/12/27 09:08:02;;;;;;;260.80;10.10;;;;;;;23.30;54.24;100148.56;7287740;19;131961;-37
2023/12/27 09:10:28;;;;;;;287.03;11.17;;;;;;;23.19;54.38;100138.97;7290196;19;129726;-37
2023/12/27 09:12:53;;;;;;;185.63;7.67;;;;;;;23.23;53.94;100150.88;7289808;19;132775;-38
2023/12/27 09:15:18;;;;;;;384.00;15.40;;;;;;;23.24;54.24;100149.88;7289227;19;132392;-38
2023/12/27 09:17:44;;;;;;;235.73;9.07;;;;;;;23.25;54.11;100157.63;7292068;19;129917;-40
2023/12/27 09:20:09;;;;;;;312.00;11.80;;;;;;;23.29;54.15;100152.97;7292042;19;129164;-39
2023/12/27 09:22:35;;;;;;;203.83;7.90;;;;;;;23.31;53.45;100156.28;7292027;19;130338;-38
2023/12/27 09:25:01;;;;;;;267.63;10.43;;;;;;;23.33;53.27;100148.28;7288447;19;130664;-41
2023/12/27 09:27:26;;;;;;;194.97;7.87;;;;;;;23.38;53.58;100143.44;7288889;19;132640;-38
2023/12/27 09:29:52;;;;;;;257.02;10.38;;;;;;;23.38;53.59;100136.41;7292200;19;129572;-36
2023/12/27 09:32:18;;;;;;;130.63;5.23;;;;;;;23.29;53.49;100120.66;7292933;19;131599;-39
2023/12/27 09:34:43;;;;;;;257.97;9.73;;;;;;;23.41;53.09;100128.25;7291062;19;131975;-41
2023/12/27 09:37:08;;;;;;;127.57;4.90;;;;;;;23.29;53.83;100121.47;7293251;19;130795;-40
2023/12/27 09:39:34;;;;;;;271.67;11.00;;;;;;;23.41;53.16;100127.41;7291480;19;131297;-40
2023/12/27 09:41:59;;;;;;;204.50;7.82;;;;;;;23.43;53.71;100134.19;7291668;19;131106;-38
2023/12/27 09:44:25;;;;;;;277.00;10.93;;;;;;;23.42;53.42;100129.91;7293317;19;130665;-39
2023/12/27 09:46:51;;;;;;;208.90;8.10;;;;;;;23.46;52.86;100122.59;7290061;19;129339;-40
2023/12/27 09:49:20;;;;;;;196.97;7.50;;;;;;;23.44;53.60;100120.09;7294045;19;131978;-37
2023/12/27 09:51:47;;;;;;;228.02;8.52;;;;;;;23.54;53.35;100123.56;7289134;19;130245;-40
2023/12/27 09:54:14;;;;;;;263.88;9.55;;;;;;;23.57;53.26;100118.00;7290334;19;130965;-37
2023/12/27 09:56:40;;;;;;;246.95;9.65;;;;;;;23.67;53.10;100110.97;7291656;19;129766;-40
2023/12/27 09:59:07;;;;;;;206.00;7.83;;;;;;;23.77;52.97;100109.16;7288221;19;130286;-39
2023/12/27 10:01:41;;;;;;;263.85;10.65;;;;;;;23.83;52.49;100100.69;7283894;19;131116;-42
2023/12/27 10:04:25;;;;;;;259.55;9.55;;;;;;;23.90;52.41;100100.97;7280503;19;131263;-37
2023/12/27 10:06:51;;;;;;;249.98;9.30;;;;;;;23.94;52.28;100097.94;7287186;19;129388;-39
2023/12/27 10:09:16;;;;;;;208.97;8.00;;;;;;;24.00;52.34;100084.25;7289610;19;132638;-40
2023/12/27 10:11:42;;;;;;;243.00;9.23;;;;;;;24.08;51.98;100084.34;7285619;19;130636;-40
2023/12/27 10:14:12;;;;;;;259.93;9.83;;;;;;;24.13;51.89;100084.75;7286047;19;130298;-38
2023/12/27 10:16:38;;;;;;;253.95;9.75;;;;;;;24.13;51.29;100055.84;7290242;19;129690;-36
2023/12/27 10:19:07;;;;;;;230.90;8.67;;;;;;;24.26;51.15;100072.09;7289080;19;129541;-38
2023/12/27 10:21:43;;;;;;;194.15;8.13;;;;;;;24.32;50.76;100065.44;7293152;19;133733;-40
2023/12/27 10:24:10;;;;;;;314.83;12.45;;;;;;;24.34;51.25;100053.84;7283624;19;130797;-39
2023/12/27 10:26:35;;;;;;;;;;;;;;;24.22;50.90;100039.22;7289753;19;130449;-40
2023/12/27 10:29:01;;;;;;;226.20;8.65;;;;;;;24.42;50.46;100056.56;7288829;19;129560;-42
2023/12/27 10:31:26;;;;;;;216.23;8.50;;;;;;;24.43;50.55;100052.09;7291717;19;131106;-40
2023/12/27 10:33:52;;;;;;;189.30;7.37;;;;;;;24.44;51.04;100059.03;7290725;19;131216;-38
2023/12/27 10:36:18;;;;;;;240.97;9.10;;;;;;;24.38;50.65;100055.19;7289269;19;129448;-43
2023/12/27 10:38:44;;;;;;;244.63;9.40;;;;;;;24.32;50.63;100055.78;7288489;19;130847;-40
2023/12/27 10:41:10;;;;;;;;;;;;;;;24.27;51.44;100044.88;7290504;19;130341;-39
2023/12/27 10:43:35;;;;;;;224.10;8.90;;;;;;;24.27;50.71;100051.91;7289184;19;130768;-38
2023/12/27 10:46:09;;;;;;;234.60;8.83;;;;;;;24.14;51.09;100044.38;7290024;19;129368;-41
2023/12/27 10:48:40;;;;;;;206.23;7.97;;;;;;;24.20;51.30;100041.16;7288419;19;129094;-40
2023/12/27 10:51:07;;;;;;;218.20;8.23;;;;;;;24.05;51.24;100037.34;7289519;19;130239;-40
2023/12/27 10:53:34;;;;;;;185.75;7.22;;;;;;;23.95;52.28;100026.03;7287436;19;130459;-40
2023/12/27 10:56:02;;;;;;;215.10;8.13;;;;;;;23.92;52.44;100028.94;7289535;19;130843;-37
2023/12/27 10:58:30;;;;;;;258.85;9.75;;;;;;;23.88;52.27;100024.94;7286974;19;129633;-34